sensor_id;sensor_type;location;lat;lon;timestamp;P1;durP1;ratioP1;P2;durP2;ratioP2
72501;SDS011;60524;49.874;8.652;2022-10-18T00:00:59;12.68;;;3.45;;
72501;SDS011;60524;49.874;8.652;2022-10-18T00:03:25;10.27;;;3.67;;
72501;SDS011;60524;49.874;8.652;2022-10-18T00:05:50;11.60;;;3.65;;
72501;SDS011;60524;49.874;8.652;2022-10-18T00:08:16;15.02;;;2.92;;
72501;SDS011;60524;49.874;8.652;2022-10-18T00:10:42;15.98;;;3.30;;
72501;SDS011;60524;49.874;8.652;2022-10-18T00:13:08;15.52;;;4.47;;
72501;SDS011;60524;49.874;8.652;2022-10-18T00:15:33;16.38;;;3.83;;
72501;SDS011;60524;49.874;8.652;2022-10-18T00:17:59;10.97;;;3.30;;
72501;SDS011;60524;49.874;8.652;2022-10-18T00:20:24;14.57;;;3.50;;
72501;SDS011;60524;49.874;8.652;2022-10-18T00:22:50;10.63;;;3.53;;
72501;SDS011;60524;49.874;8.652;2022-10-18T00:25:15;8.60;;;3.40;;
72501;SDS011;60524;49.874;8.652;2022-10-18T00:27:40;12.50;;;3.85;;
72501;SDS011;60524;49.874;8.652;2022-10-18T00:30:06;12.35;;;3.92;;
72501;SDS011;60524;49.874;8.652;2022-10-18T00:32:36;13.65;;;4.18;;
72501;SDS011;60524;49.874;8.652;2022-10-18T00:35:04;11.13;;;3.63;;
72501;SDS011;60524;49.874;8.652;2022-10-18T00:37:31;9.98;;;3.78;;
72501;SDS011;60524;49.874;8.652;2022-10-18T00:39:57;7.63;;;3.60;;
72501;SDS011;60524;49.874;8.652;2022-10-18T00:42:23;12.73;;;4.00;;
72501;SDS011;60524;49.874;8.652;2022-10-18T00:47:16;13.67;;;4.73;;
72501;SDS011;60524;49.874;8.652;2022-10-18T00:49:50;9.77;;;5.20;;
72501;SDS011;60524;49.874;8.652;2022-10-18T00:52:25;10.63;;;5.28;;
72501;SDS011;60524;49.874;8.652;2022-10-18T00:54:52;9.20;;;4.90;;
72501;SDS011;60524;49.874;8.652;2022-10-18T00:57:19;8.45;;;4.80;;
72501;SDS011;60524;49.874;8.652;2022-10-18T00:59:45;12.75;;;4.53;;
72501;SDS011;60524;49.874;8.652;2022-10-18T01:02:11;13.50;;;4.80;;
72501;SDS011;60524;49.874;8.652;2022-10-18T01:04:38;9.18;;;4.57;;
72501;SDS011;60524;49.874;8.652;2022-10-18T01:15:29;14.95;;;4.57;;
72501;SDS011;60524;49.874;8.652;2022-10-18T01:28:58;13.30;;;4.80;;
72501;SDS011;60524;49.874;8.652;2022-10-18T01:31:34;10.40;;;4.50;;
72501;SDS011;60524;49.874;8.652;2022-10-18T01:34:04;12.65;;;4.93;;
72501;SDS011;60524;49.874;8.652;2022-10-18T01:36:32;12.43;;;4.93;;
72501;SDS011;60524;49.874;8.652;2022-10-18T01:39:00;16.05;;;4.55;;
72501;SDS011;60524;49.874;8.652;2022-10-18T01:41:27;11.80;;;4.18;;
72501;SDS011;60524;49.874;8.652;2022-10-18T01:43:56;14.02;;;4.50;;
72501;SDS011;60524;49.874;8.652;2022-10-18T01:46:23;9.68;;;4.25;;
72501;SDS011;60524;49.874;8.652;2022-10-18T01:48:50;9.68;;;4.57;;
72501;SDS011;60524;49.874;8.652;2022-10-18T01:51:22;12.05;;;4.63;;
72501;SDS011;60524;49.874;8.652;2022-10-18T01:53:49;10.95;;;4.88;;
72501;SDS011;60524;49.874;8.652;2022-10-18T01:56:19;10.07;;;4.87;;
72501;SDS011;60524;49.874;8.652;2022-10-18T02:04:06;10.88;;;4.40;;
72501;SDS011;60524;49.874;8.652;2022-10-18T02:06:57;9.52;;;4.40;;
72501;SDS011;60524;49.874;8.652;2022-10-18T02:09:43;9.20;;;4.47;;
72501;SDS011;60524;49.874;8.652;2022-10-18T02:12:14;10.43;;;4.10;;
72501;SDS011;60524;49.874;8.652;2022-10-18T02:14:40;9.20;;;4.38;;
72501;SDS011;60524;49.874;8.652;2022-10-18T02:17:07;11.95;;;4.65;;
72501;SDS011;60524;49.874;8.652;2022-10-18T02:19:35;11.93;;;4.18;;
72501;SDS011;60524;49.874;8.652;2022-10-18T02:22:03;7.57;;;4.25;;
72501;SDS011;60524;49.874;8.652;2022-10-18T02:24:41;11.07;;;3.88;;
72501;SDS011;60524;49.874;8.652;2022-10-18T02:27:08;10.93;;;4.18;;
72501;SDS011;60524;49.874;8.652;2022-10-18T02:29:34;16.05;;;4.97;;
72501;SDS011;60524;49.874;8.652;2022-10-18T02:34:59;11.90;;;4.55;;
72501;SDS011;60524;49.874;8.652;2022-10-18T02:37:31;11.98;;;5.20;;
72501;SDS011;60524;49.874;8.652;2022-10-18T02:40:02;9.15;;;4.60;;
72501;SDS011;60524;49.874;8.652;2022-10-18T02:42:32;16.23;;;5.82;;
72501;SDS011;60524;49.874;8.652;2022-10-18T02:44:59;11.15;;;5.32;;
72501;SDS011;60524;49.874;8.652;2022-10-18T02:47:24;7.50;;;4.77;;
72501;SDS011;60524;49.874;8.652;2022-10-18T02:49:49;15.23;;;6.07;;
72501;SDS011;60524;49.874;8.652;2022-10-18T02:52:15;11.57;;;5.40;;
72501;SDS011;60524;49.874;8.652;2022-10-18T02:54:40;18.53;;;5.63;;
72501;SDS011;60524;49.874;8.652;2022-10-18T02:57:05;10.93;;;5.30;;
72501;SDS011;60524;49.874;8.652;2022-10-18T02:59:31;25.60;;;5.90;;
72501;SDS011;60524;49.874;8.652;2022-10-18T03:01:56;13.10;;;6.53;;
72501;SDS011;60524;49.874;8.652;2022-10-18T03:04:21;14.43;;;5.83;;
72501;SDS011;60524;49.874;8.652;2022-10-18T03:06:46;13.23;;;6.37;;
72501;SDS011;60524;49.874;8.652;2022-10-18T03:09:12;15.07;;;7.70;;
72501;SDS011;60524;49.874;8.652;2022-10-18T03:11:37;19.63;;;6.93;;
72501;SDS011;60524;49.874;8.652;2022-10-18T03:14:02;18.42;;;6.78;;
72501;SDS011;60524;49.874;8.652;2022-10-18T03:16:28;14.17;;;6.63;;
72501;SDS011;60524;49.874;8.652;2022-10-18T03:18:53;13.40;;;6.20;;
72501;SDS011;60524;49.874;8.652;2022-10-18T03:21:18;19.03;;;6.50;;
72501;SDS011;60524;49.874;8.652;2022-10-18T03:23:44;14.90;;;6.17;;
72501;SDS011;60524;49.874;8.652;2022-10-18T03:26:09;15.43;;;7.90;;
72501;SDS011;60524;49.874;8.652;2022-10-18T03:28:34;14.50;;;7.80;;
72501;SDS011;60524;49.874;8.652;2022-10-18T03:31:00;13.90;;;7.53;;
72501;SDS011;60524;49.874;8.652;2022-10-18T03:33:26;16.98;;;6.97;;
72501;SDS011;60524;49.874;8.652;2022-10-18T03:35:52;14.80;;;7.10;;
72501;SDS011;60524;49.874;8.652;2022-10-18T03:38:17;17.17;;;8.27;;
72501;SDS011;60524;49.874;8.652;2022-10-18T03:40:43;12.07;;;7.28;;
72501;SDS011;60524;49.874;8.652;2022-10-18T03:43:08;13.83;;;7.53;;
72501;SDS011;60524;49.874;8.652;2022-10-18T03:45:33;13.73;;;7.67;;
72501;SDS011;60524;49.874;8.652;2022-10-18T03:47:59;20.73;;;7.70;;
72501;SDS011;60524;49.874;8.652;2022-10-18T03:50:24;20.03;;;7.30;;
72501;SDS011;60524;49.874;8.652;2022-10-18T03:52:49;20.00;;;7.60;;
72501;SDS011;60524;49.874;8.652;2022-10-18T03:55:14;11.37;;;6.73;;
72501;SDS011;60524;49.874;8.652;2022-10-18T03:57:40;18.10;;;7.03;;
72501;SDS011;60524;49.874;8.652;2022-10-18T04:00:05;12.87;;;6.90;;
72501;SDS011;60524;49.874;8.652;2022-10-18T04:02:31;15.63;;;7.10;;
72501;SDS011;60524;49.874;8.652;2022-10-18T04:04:57;14.77;;;6.70;;
72501;SDS011;60524;49.874;8.652;2022-10-18T04:07:22;12.10;;;7.22;;
72501;SDS011;60524;49.874;8.652;2022-10-18T04:09:48;16.37;;;6.77;;
72501;SDS011;60524;49.874;8.652;2022-10-18T04:12:13;16.20;;;8.00;;
72501;SDS011;60524;49.874;8.652;2022-10-18T04:14:38;19.27;;;8.97;;
72501;SDS011;60524;49.874;8.652;2022-10-18T04:17:04;13.40;;;7.47;;
72501;SDS011;60524;49.874;8.652;2022-10-18T04:19:29;13.67;;;7.93;;
72501;SDS011;60524;49.874;8.652;2022-10-18T04:21:54;13.75;;;7.20;;
72501;SDS011;60524;49.874;8.652;2022-10-18T04:24:20;11.27;;;7.33;;
72501;SDS011;60524;49.874;8.652;2022-10-18T04:26:45;14.80;;;7.35;;
72501;SDS011;60524;49.874;8.652;2022-10-18T04:29:10;18.57;;;7.60;;
72501;SDS011;60524;49.874;8.652;2022-10-18T04:31:36;14.60;;;8.43;;
72501;SDS011;60524;49.874;8.652;2022-10-18T04:34:01;20.23;;;8.65;;
72501;SDS011;60524;49.874;8.652;2022-10-18T04:36:28;18.35;;;9.15;;
72501;SDS011;60524;49.874;8.652;2022-10-18T04:38:53;21.10;;;8.15;;
72501;SDS011;60524;49.874;8.652;2022-10-18T04:41:20;18.20;;;8.55;;
72501;SDS011;60524;49.874;8.652;2022-10-18T04:43:45;16.13;;;8.13;;
72501;SDS011;60524;49.874;8.652;2022-10-18T04:46:10;12.17;;;7.30;;
72501;SDS011;60524;49.874;8.652;2022-10-18T04:48:36;16.30;;;8.23;;
72501;SDS011;60524;49.874;8.652;2022-10-18T04:51:01;20.63;;;7.70;;
72501;SDS011;60524;49.874;8.652;2022-10-18T04:53:26;13.00;;;7.85;;
72501;SDS011;60524;49.874;8.652;2022-10-18T04:55:52;14.40;;;8.10;;
72501;SDS011;60524;49.874;8.652;2022-10-18T04:58:17;20.13;;;8.93;;
72501;SDS011;60524;49.874;8.652;2022-10-18T05:00:43;16.27;;;9.00;;
72501;SDS011;60524;49.874;8.652;2022-10-18T05:03:09;15.80;;;9.10;;
72501;SDS011;60524;49.874;8.652;2022-10-18T05:05:35;16.88;;;9.43;;
72501;SDS011;60524;49.874;8.652;2022-10-18T05:08:01;16.80;;;10.03;;
72501;SDS011;60524;49.874;8.652;2022-10-18T05:10:26;21.43;;;9.83;;
72501;SDS011;60524;49.874;8.652;2022-10-18T05:12:51;18.10;;;9.50;;
72501;SDS011;60524;49.874;8.652;2022-10-18T05:15:17;18.40;;;9.20;;
72501;SDS011;60524;49.874;8.652;2022-10-18T05:17:42;19.63;;;8.63;;
72501;SDS011;60524;49.874;8.652;2022-10-18T05:20:07;21.07;;;9.83;;
72501;SDS011;60524;49.874;8.652;2022-10-18T05:22:33;25.23;;;10.27;;
72501;SDS011;60524;49.874;8.652;2022-10-18T05:24:58;13.70;;;8.37;;
72501;SDS011;60524;49.874;8.652;2022-10-18T05:27:24;23.27;;;8.63;;
72501;SDS011;60524;49.874;8.652;2022-10-18T05:29:49;15.50;;;8.20;;
72501;SDS011;60524;49.874;8.652;2022-10-18T05:32:14;14.07;;;8.40;;
72501;SDS011;60524;49.874;8.652;2022-10-18T05:34:40;14.20;;;8.33;;
72501;SDS011;60524;49.874;8.652;2022-10-18T05:37:05;16.10;;;8.13;;
72501;SDS011;60524;49.874;8.652;2022-10-18T05:39:31;18.10;;;9.13;;
72501;SDS011;60524;49.874;8.652;2022-10-18T05:41:56;16.42;;;9.18;;
72501;SDS011;60524;49.874;8.652;2022-10-18T05:44:22;15.02;;;8.98;;
72501;SDS011;60524;49.874;8.652;2022-10-18T05:46:47;25.53;;;9.87;;
72501;SDS011;60524;49.874;8.652;2022-10-18T05:49:12;23.93;;;9.00;;
72501;SDS011;60524;49.874;8.652;2022-10-18T05:51:38;15.88;;;8.88;;
72501;SDS011;60524;49.874;8.652;2022-10-18T05:54:03;15.83;;;8.83;;
72501;SDS011;60524;49.874;8.652;2022-10-18T05:56:29;15.37;;;8.30;;
72501;SDS011;60524;49.874;8.652;2022-10-18T05:58:54;15.53;;;8.83;;
72501;SDS011;60524;49.874;8.652;2022-10-18T06:01:19;22.23;;;8.00;;
72501;SDS011;60524;49.874;8.652;2022-10-18T06:03:45;16.52;;;8.50;;
72501;SDS011;60524;49.874;8.652;2022-10-18T06:06:11;15.52;;;7.60;;
72501;SDS011;60524;49.874;8.652;2022-10-18T06:08:37;15.45;;;7.88;;
72501;SDS011;60524;49.874;8.652;2022-10-18T06:11:07;15.30;;;8.15;;
72501;SDS011;60524;49.874;8.652;2022-10-18T06:13:33;10.48;;;7.70;;
72501;SDS011;60524;49.874;8.652;2022-10-18T06:15:58;14.65;;;7.32;;
72501;SDS011;60524;49.874;8.652;2022-10-18T06:18:24;17.63;;;7.17;;
72501;SDS011;60524;49.874;8.652;2022-10-18T06:20:54;11.98;;;7.97;;
72501;SDS011;60524;49.874;8.652;2022-10-18T06:23:21;13.27;;;7.25;;
72501;SDS011;60524;49.874;8.652;2022-10-18T06:25:46;10.33;;;6.60;;
72501;SDS011;60524;49.874;8.652;2022-10-18T06:28:11;14.67;;;7.40;;
72501;SDS011;60524;49.874;8.652;2022-10-18T06:30:36;15.93;;;6.87;;
72501;SDS011;60524;49.874;8.652;2022-10-18T06:33:02;9.53;;;5.63;;
72501;SDS011;60524;49.874;8.652;2022-10-18T06:35:27;11.13;;;6.70;;
72501;SDS011;60524;49.874;8.652;2022-10-18T06:37:52;17.23;;;6.10;;
72501;SDS011;60524;49.874;8.652;2022-10-18T06:40:18;9.07;;;5.53;;
72501;SDS011;60524;49.874;8.652;2022-10-18T06:42:43;11.43;;;6.20;;
72501;SDS011;60524;49.874;8.652;2022-10-18T06:45:10;16.63;;;6.30;;
72501;SDS011;60524;49.874;8.652;2022-10-18T06:47:35;13.70;;;6.20;;
72501;SDS011;60524;49.874;8.652;2022-10-18T06:50:00;12.53;;;6.57;;
72501;SDS011;60524;49.874;8.652;2022-10-18T06:52:26;12.10;;;6.07;;
72501;SDS011;60524;49.874;8.652;2022-10-18T06:54:53;11.57;;;5.55;;
72501;SDS011;60524;49.874;8.652;2022-10-18T06:57:20;12.65;;;6.07;;
72501;SDS011;60524;49.874;8.652;2022-10-18T06:59:45;9.15;;;6.05;;
72501;SDS011;60524;49.874;8.652;2022-10-18T07:02:13;14.82;;;6.30;;
72501;SDS011;60524;49.874;8.652;2022-10-18T07:04:39;14.05;;;7.63;;
72501;SDS011;60524;49.874;8.652;2022-10-18T07:07:04;19.30;;;7.33;;
72501;SDS011;60524;49.874;8.652;2022-10-18T07:09:29;17.97;;;8.13;;
72501;SDS011;60524;49.874;8.652;2022-10-18T07:11:54;15.57;;;7.83;;
72501;SDS011;60524;49.874;8.652;2022-10-18T07:14:20;18.90;;;8.80;;
72501;SDS011;60524;49.874;8.652;2022-10-18T07:16:45;17.43;;;8.87;;
72501;SDS011;60524;49.874;8.652;2022-10-18T07:19:10;19.45;;;8.48;;
72501;SDS011;60524;49.874;8.652;2022-10-18T07:21:36;17.37;;;8.83;;
72501;SDS011;60524;49.874;8.652;2022-10-18T07:24:01;12.40;;;8.20;;
72501;SDS011;60524;49.874;8.652;2022-10-18T07:26:30;15.37;;;9.30;;
72501;SDS011;60524;49.874;8.652;2022-10-18T07:29:03;20.45;;;9.48;;
72501;SDS011;60524;49.874;8.652;2022-10-18T07:31:32;17.40;;;8.85;;
72501;SDS011;60524;49.874;8.652;2022-10-18T07:33:58;13.75;;;8.68;;
72501;SDS011;60524;49.874;8.652;2022-10-18T07:36:23;17.92;;;9.65;;
72501;SDS011;60524;49.874;8.652;2022-10-18T07:38:52;19.10;;;9.88;;
72501;SDS011;60524;49.874;8.652;2022-10-18T07:41:18;17.30;;;9.77;;
72501;SDS011;60524;49.874;8.652;2022-10-18T07:43:45;14.88;;;9.60;;
72501;SDS011;60524;49.874;8.652;2022-10-18T07:46:12;20.25;;;9.50;;
72501;SDS011;60524;49.874;8.652;2022-10-18T07:48:38;16.35;;;9.05;;
72501;SDS011;60524;49.874;8.652;2022-10-18T07:51:03;19.00;;;9.17;;
72501;SDS011;60524;49.874;8.652;2022-10-18T07:53:29;16.88;;;9.35;;
72501;SDS011;60524;49.874;8.652;2022-10-18T07:55:57;19.77;;;10.55;;
72501;SDS011;60524;49.874;8.652;2022-10-18T07:58:23;20.25;;;10.40;;
72501;SDS011;60524;49.874;8.652;2022-10-18T08:00:49;17.60;;;10.17;;
72501;SDS011;60524;49.874;8.652;2022-10-18T08:03:14;15.43;;;9.77;;
72501;SDS011;60524;49.874;8.652;2022-10-18T08:05:39;15.60;;;9.63;;
72501;SDS011;60524;49.874;8.652;2022-10-18T08:08:04;20.50;;;10.53;;
72501;SDS011;60524;49.874;8.652;2022-10-18T08:10:30;22.43;;;10.20;;
72501;SDS011;60524;49.874;8.652;2022-10-18T08:12:55;17.33;;;10.00;;
72501;SDS011;60524;49.874;8.652;2022-10-18T08:15:20;18.33;;;8.67;;
72501;SDS011;60524;49.874;8.652;2022-10-18T08:17:48;19.35;;;10.48;;
72501;SDS011;60524;49.874;8.652;2022-10-18T08:20:16;18.27;;;10.20;;
72501;SDS011;60524;49.874;8.652;2022-10-18T08:22:42;16.25;;;9.05;;
72501;SDS011;60524;49.874;8.652;2022-10-18T08:25:07;17.73;;;9.23;;
72501;SDS011;60524;49.874;8.652;2022-10-18T08:27:33;17.35;;;9.60;;
72501;SDS011;60524;49.874;8.652;2022-10-18T08:29:58;17.23;;;8.80;;
72501;SDS011;60524;49.874;8.652;2022-10-18T08:32:25;20.23;;;8.85;;
72501;SDS011;60524;49.874;8.652;2022-10-18T08:34:52;15.88;;;8.43;;
72501;SDS011;60524;49.874;8.652;2022-10-18T08:37:17;13.10;;;6.72;;
72501;SDS011;60524;49.874;8.652;2022-10-18T08:39:43;13.37;;;7.43;;
72501;SDS011;60524;49.874;8.652;2022-10-18T08:44:52;13.70;;;7.30;;
72501;SDS011;60524;49.874;8.652;2022-10-18T08:47:19;16.02;;;7.55;;
72501;SDS011;60524;49.874;8.652;2022-10-18T08:50:15;17.52;;;7.28;;
72501;SDS011;60524;49.874;8.652;2022-10-18T08:58:03;14.07;;;9.00;;
72501;SDS011;60524;49.874;8.652;2022-10-18T09:00:42;15.10;;;8.15;;
72501;SDS011;60524;49.874;8.652;2022-10-18T09:05:50;20.23;;;7.53;;
72501;SDS011;60524;49.874;8.652;2022-10-18T09:15:53;25.70;;;9.80;;
72501;SDS011;60524;49.874;8.652;2022-10-18T09:23:29;18.48;;;8.25;;
72501;SDS011;60524;49.874;8.652;2022-10-18T09:26:00;16.13;;;9.32;;
72501;SDS011;60524;49.874;8.652;2022-10-18T09:36:28;16.27;;;8.75;;
72501;SDS011;60524;49.874;8.652;2022-10-18T09:39:03;15.60;;;8.48;;
72501;SDS011;60524;49.874;8.652;2022-10-18T09:41:36;14.00;;;8.23;;
72501;SDS011;60524;49.874;8.652;2022-10-18T09:47:07;18.92;;;9.45;;
72501;SDS011;60524;49.874;8.652;2022-10-18T09:49:41;13.65;;;8.70;;
72501;SDS011;60524;49.874;8.652;2022-10-18T09:52:19;16.33;;;9.48;;
72501;SDS011;60524;49.874;8.652;2022-10-18T09:54:50;15.88;;;9.93;;
72501;SDS011;60524;49.874;8.652;2022-10-18T09:57:36;14.95;;;8.25;;
72501;SDS011;60524;49.874;8.652;2022-10-18T10:00:07;13.23;;;8.20;;
72501;SDS011;60524;49.874;8.652;2022-10-18T10:02:39;19.33;;;8.20;;
72501;SDS011;60524;49.874;8.652;2022-10-18T10:05:05;13.57;;;9.20;;
72501;SDS011;60524;49.874;8.652;2022-10-18T10:07:40;13.63;;;8.20;;
72501;SDS011;60524;49.874;8.652;2022-10-18T10:10:11;15.10;;;8.18;;
72501;SDS011;60524;49.874;8.652;2022-10-18T10:12:41;12.00;;;6.88;;
72501;SDS011;60524;49.874;8.652;2022-10-18T10:15:19;12.18;;;6.97;;
72501;SDS011;60524;49.874;8.652;2022-10-18T10:17:57;9.18;;;6.38;;
72501;SDS011;60524;49.874;8.652;2022-10-18T10:20:33;8.90;;;6.00;;
72501;SDS011;60524;49.874;8.652;2022-10-18T10:23:08;9.68;;;6.22;;
72501;SDS011;60524;49.874;8.652;2022-10-18T10:25:38;9.27;;;6.10;;
72501;SDS011;60524;49.874;8.652;2022-10-18T10:28:18;8.68;;;5.65;;
72501;SDS011;60524;49.874;8.652;2022-10-18T10:30:45;8.13;;;5.55;;
72501;SDS011;60524;49.874;8.652;2022-10-18T10:35:56;10.32;;;5.20;;
72501;SDS011;60524;49.874;8.652;2022-10-18T10:38:24;8.10;;;5.10;;
72501;SDS011;60524;49.874;8.652;2022-10-18T10:40:50;8.35;;;5.72;;
72501;SDS011;60524;49.874;8.652;2022-10-18T10:46:02;7.20;;;4.70;;
72501;SDS011;60524;49.874;8.652;2022-10-18T10:48:38;7.22;;;5.05;;
72501;SDS011;60524;49.874;8.652;2022-10-18T10:51:06;5.25;;;4.18;;
72501;SDS011;60524;49.874;8.652;2022-10-18T10:56:02;7.63;;;4.15;;
72501;SDS011;60524;49.874;8.652;2022-10-18T10:58:32;8.10;;;4.07;;
72501;SDS011;60524;49.874;8.652;2022-10-18T11:01:15;8.65;;;4.35;;
72501;SDS011;60524;49.874;8.652;2022-10-18T11:03:46;8.70;;;3.92;;
72501;SDS011;60524;49.874;8.652;2022-10-18T11:10:13;5.45;;;3.47;;
72501;SDS011;60524;49.874;8.652;2022-10-18T11:14:42;4.37;;;2.87;;
72501;SDS011;60524;49.874;8.652;2022-10-18T11:17:19;6.57;;;2.47;;
72501;SDS011;60524;49.874;8.652;2022-10-18T11:19:57;2.90;;;1.95;;
72501;SDS011;60524;49.874;8.652;2022-10-18T11:22:37;3.80;;;1.92;;
72501;SDS011;60524;49.874;8.652;2022-10-18T11:25:07;4.30;;;2.30;;
72501;SDS011;60524;49.874;8.652;2022-10-18T11:33:16;3.70;;;1.75;;
72501;SDS011;60524;49.874;8.652;2022-10-18T11:35:51;4.20;;;1.60;;
72501;SDS011;60524;49.874;8.652;2022-10-18T11:38:30;4.43;;;1.30;;
72501;SDS011;60524;49.874;8.652;2022-10-18T11:41:05;2.70;;;1.20;;
72501;SDS011;60524;49.874;8.652;2022-10-18T11:43:53;2.00;;;1.35;;
72501;SDS011;60524;49.874;8.652;2022-10-18T11:52:32;3.88;;;1.90;;
72501;SDS011;60524;49.874;8.652;2022-10-18T12:01:33;8.48;;;2.30;;
72501;SDS011;60524;49.874;8.652;2022-10-18T12:04:10;2.28;;;1.25;;
72501;SDS011;60524;49.874;8.652;2022-10-18T12:06:40;2.63;;;1.20;;
72501;SDS011;60524;49.874;8.652;2022-10-18T12:11:40;2.40;;;1.50;;
72501;SDS011;60524;49.874;8.652;2022-10-18T12:14:19;9.32;;;2.65;;
72501;SDS011;60524;49.874;8.652;2022-10-18T12:16:48;7.95;;;2.03;;
72501;SDS011;60524;49.874;8.652;2022-10-18T12:19:19;2.90;;;1.55;;
72501;SDS011;60524;49.874;8.652;2022-10-18T12:21:46;2.63;;;1.00;;
72501;SDS011;60524;49.874;8.652;2022-10-18T12:24:13;2.95;;;0.73;;
72501;SDS011;60524;49.874;8.652;2022-10-18T12:26:42;4.18;;;0.90;;
72501;SDS011;60524;49.874;8.652;2022-10-18T12:29:15;2.00;;;1.13;;
72501;SDS011;60524;49.874;8.652;2022-10-18T12:31:49;1.88;;;0.73;;
72501;SDS011;60524;49.874;8.652;2022-10-18T12:36:49;1.70;;;0.70;;
72501;SDS011;60524;49.874;8.652;2022-10-18T12:39:28;1.85;;;0.70;;
72501;SDS011;60524;49.874;8.652;2022-10-18T12:41:56;1.10;;;0.70;;
72501;SDS011;60524;49.874;8.652;2022-10-18T12:44:27;2.67;;;0.77;;
72501;SDS011;60524;49.874;8.652;2022-10-18T12:46:59;3.38;;;0.80;;
72501;SDS011;60524;49.874;8.652;2022-10-18T12:49:33;2.33;;;0.60;;
72501;SDS011;60524;49.874;8.652;2022-10-18T12:52:05;1.73;;;0.80;;
72501;SDS011;60524;49.874;8.652;2022-10-18T12:54:35;2.45;;;0.70;;
72501;SDS011;60524;49.874;8.652;2022-10-18T12:57:03;2.55;;;1.20;;
72501;SDS011;60524;49.874;8.652;2022-10-18T13:09:25;2.67;;;0.70;;
72501;SDS011;60524;49.874;8.652;2022-10-18T13:12:00;1.90;;;0.90;;
72501;SDS011;60524;49.874;8.652;2022-10-18T13:17:38;4.15;;;0.73;;
72501;SDS011;60524;49.874;8.652;2022-10-18T13:20:22;2.88;;;0.80;;
72501;SDS011;60524;49.874;8.652;2022-10-18T13:23:11;1.20;;;0.50;;
72501;SDS011;60524;49.874;8.652;2022-10-18T13:28:30;4.45;;;0.90;;
72501;SDS011;60524;49.874;8.652;2022-10-18T13:33:35;2.20;;;0.75;;
72501;SDS011;60524;49.874;8.652;2022-10-18T13:43:55;1.50;;;0.60;;
72501;SDS011;60524;49.874;8.652;2022-10-18T13:51:43;3.50;;;0.85;;
72501;SDS011;60524;49.874;8.652;2022-10-18T13:59:17;3.90;;;0.98;;
72501;SDS011;60524;49.874;8.652;2022-10-18T14:01:55;3.40;;;1.00;;
72501;SDS011;60524;49.874;8.652;2022-10-18T14:07:29;1.23;;;0.63;;
72501;SDS011;60524;49.874;8.652;2022-10-18T14:09:54;3.53;;;0.80;;
72501;SDS011;60524;49.874;8.652;2022-10-18T14:15:24;2.65;;;0.98;;
72501;SDS011;60524;49.874;8.652;2022-10-18T14:17:52;2.75;;;1.13;;
72501;SDS011;60524;49.874;8.652;2022-10-18T14:20:43;1.80;;;0.80;;
72501;SDS011;60524;49.874;8.652;2022-10-18T14:23:25;2.38;;;1.02;;
72501;SDS011;60524;49.874;8.652;2022-10-18T14:26:13;3.25;;;1.30;;
72501;SDS011;60524;49.874;8.652;2022-10-18T14:28:39;1.75;;;1.00;;
72501;SDS011;60524;49.874;8.652;2022-10-18T14:31:05;1.57;;;0.87;;
72501;SDS011;60524;49.874;8.652;2022-10-18T14:33:37;2.22;;;0.70;;
72501;SDS011;60524;49.874;8.652;2022-10-18T14:36:14;6.28;;;1.77;;
72501;SDS011;60524;49.874;8.652;2022-10-18T14:38:56;2.28;;;1.40;;
72501;SDS011;60524;49.874;8.652;2022-10-18T14:41:32;2.78;;;1.20;;
72501;SDS011;60524;49.874;8.652;2022-10-18T14:46:59;4.45;;;1.10;;
72501;SDS011;60524;49.874;8.652;2022-10-18T14:49:25;3.60;;;1.35;;
72501;SDS011;60524;49.874;8.652;2022-10-18T14:51:51;4.28;;;2.00;;
72501;SDS011;60524;49.874;8.652;2022-10-18T14:54:20;3.50;;;0.88;;
72501;SDS011;60524;49.874;8.652;2022-10-18T14:57:06;3.85;;;1.83;;
72501;SDS011;60524;49.874;8.652;2022-10-18T14:59:43;3.38;;;0.90;;
72501;SDS011;60524;49.874;8.652;2022-10-18T15:02:13;2.88;;;0.95;;
72501;SDS011;60524;49.874;8.652;2022-10-18T15:04:42;2.40;;;1.08;;
72501;SDS011;60524;49.874;8.652;2022-10-18T15:07:12;2.42;;;0.95;;
72501;SDS011;60524;49.874;8.652;2022-10-18T15:09:39;3.92;;;1.10;;
72501;SDS011;60524;49.874;8.652;2022-10-18T15:12:05;2.58;;;1.10;;
72501;SDS011;60524;49.874;8.652;2022-10-18T15:14:31;2.35;;;1.25;;
72501;SDS011;60524;49.874;8.652;2022-10-18T15:19:52;4.00;;;1.00;;
72501;SDS011;60524;49.874;8.652;2022-10-18T15:22:26;11.13;;;1.40;;
72501;SDS011;60524;49.874;8.652;2022-10-18T15:27:44;5.47;;;1.83;;
72501;SDS011;60524;49.874;8.652;2022-10-18T15:30:21;2.38;;;1.40;;
72501;SDS011;60524;49.874;8.652;2022-10-18T15:33:02;3.83;;;1.30;;
72501;SDS011;60524;49.874;8.652;2022-10-18T15:35:32;1.33;;;0.75;;
72501;SDS011;60524;49.874;8.652;2022-10-18T15:37:59;2.63;;;1.02;;
72501;SDS011;60524;49.874;8.652;2022-10-18T15:40:29;3.67;;;0.70;;
72501;SDS011;60524;49.874;8.652;2022-10-18T15:42:58;2.78;;;1.20;;
72501;SDS011;60524;49.874;8.652;2022-10-18T15:45:27;2.53;;;0.75;;
72501;SDS011;60524;49.874;8.652;2022-10-18T15:48:01;9.05;;;1.10;;
72501;SDS011;60524;49.874;8.652;2022-10-18T15:59:01;14.75;;;4.78;;
72501;SDS011;60524;49.874;8.652;2022-10-18T16:01:32;5.03;;;1.40;;
72501;SDS011;60524;49.874;8.652;2022-10-18T16:04:03;3.95;;;1.60;;
72501;SDS011;60524;49.874;8.652;2022-10-18T16:06:30;2.05;;;0.82;;
72501;SDS011;60524;49.874;8.652;2022-10-18T16:08:59;2.55;;;1.00;;
72501;SDS011;60524;49.874;8.652;2022-10-18T16:11:24;3.30;;;1.23;;
72501;SDS011;60524;49.874;8.652;2022-10-18T16:13:50;2.58;;;0.80;;
72501;SDS011;60524;49.874;8.652;2022-10-18T16:16:23;5.40;;;1.73;;
72501;SDS011;60524;49.874;8.652;2022-10-18T16:18:50;6.95;;;2.33;;
72501;SDS011;60524;49.874;8.652;2022-10-18T16:23:43;3.00;;;1.30;;
72501;SDS011;60524;49.874;8.652;2022-10-18T16:26:10;4.30;;;1.40;;
72501;SDS011;60524;49.874;8.652;2022-10-18T16:28:35;4.50;;;1.40;;
72501;SDS011;60524;49.874;8.652;2022-10-18T16:31:01;3.93;;;1.67;;
72501;SDS011;60524;49.874;8.652;2022-10-18T16:33:28;4.95;;;1.25;;
72501;SDS011;60524;49.874;8.652;2022-10-18T16:35:54;7.00;;;1.50;;
72501;SDS011;60524;49.874;8.652;2022-10-18T16:40:51;4.82;;;2.30;;
72501;SDS011;60524;49.874;8.652;2022-10-18T16:43:16;5.85;;;1.38;;
72501;SDS011;60524;49.874;8.652;2022-10-18T16:45:42;4.27;;;1.67;;
72501;SDS011;60524;49.874;8.652;2022-10-18T16:48:08;2.97;;;1.40;;
72501;SDS011;60524;49.874;8.652;2022-10-18T16:50:37;4.88;;;1.83;;
72501;SDS011;60524;49.874;8.652;2022-10-18T16:53:02;3.40;;;1.90;;
72501;SDS011;60524;49.874;8.652;2022-10-18T16:55:28;3.93;;;1.63;;
72501;SDS011;60524;49.874;8.652;2022-10-18T16:57:53;6.72;;;3.22;;
72501;SDS011;60524;49.874;8.652;2022-10-18T17:00:19;6.03;;;2.33;;
72501;SDS011;60524;49.874;8.652;2022-10-18T17:02:48;5.72;;;1.95;;
72501;SDS011;60524;49.874;8.652;2022-10-18T17:05:14;4.90;;;1.50;;
72501;SDS011;60524;49.874;8.652;2022-10-18T17:07:40;5.88;;;1.80;;
72501;SDS011;60524;49.874;8.652;2022-10-18T17:10:06;5.32;;;2.35;;
72501;SDS011;60524;49.874;8.652;2022-10-18T17:12:32;4.32;;;1.90;;
72501;SDS011;60524;49.874;8.652;2022-10-18T17:14:57;5.17;;;1.40;;
72501;SDS011;60524;49.874;8.652;2022-10-18T17:17:22;7.30;;;1.80;;
72501;SDS011;60524;49.874;8.652;2022-10-18T17:19:48;3.85;;;1.70;;
72501;SDS011;60524;49.874;8.652;2022-10-18T17:22:13;7.20;;;2.50;;
72501;SDS011;60524;49.874;8.652;2022-10-18T17:24:39;4.57;;;2.47;;
72501;SDS011;60524;49.874;8.652;2022-10-18T17:27:04;7.57;;;2.80;;
72501;SDS011;60524;49.874;8.652;2022-10-18T17:29:30;5.47;;;1.87;;
72501;SDS011;60524;49.874;8.652;2022-10-18T17:31:55;5.07;;;1.77;;
72501;SDS011;60524;49.874;8.652;2022-10-18T17:34:20;5.45;;;2.63;;